Time;durP1;ratioP1;P1;durP2;ratioP2;P2;SDS_P1;SDS_P2;PMS_P1;PMS_P2;Temp;Humidity;BMP_temperature;BMP_pressure;BME280_temperature;BME280_humidity;BME280_pressure;Samples;Min_cycle;Max_cycle;Signal;HPM_P1;HPM_P2
2022/06/08 00:01:50;;;;;;;10.63;7.88;;;;;;;20.49;73.57;99381.38;5085908;28;20101;-66
2022/06/08 00:04:17;;;;;;;9.02;7.60;;;;;;;20.50;73.24;99377.66;5084723;28;20039;-66
2022/06/08 00:06:44;;;;;;;14.48;8.02;;;;;;;20.52;72.68;99375.53;5089402;28;20243;-66
2022/06/08 00:09:10;;;;;;;9.25;7.57;;;;;;;20.42;73.21;99365.38;5083069;28;20024;-66
2022/06/08 00:11:35;;;;;;;12.50;7.25;;;;;;;20.28;73.75;99364.75;5087072;28;20218;-66
2022/06/08 00:14:01;;;;;;;11.63;7.45;;;;;;;20.39;73.09;99357.78;5087725;28;20291;-66
2022/06/08 00:16:26;;;;;;;13.75;7.75;;;;;;;20.39;72.91;99363.16;5091264;28;20043;-66
2022/06/08 00:18:52;;;;;;;9.20;6.95;;;;;;;20.36;73.10;99360.91;5098304;28;20020;-67
2022/06/08 00:21:18;;;;;;;10.13;7.43;;;;;;;20.35;72.77;99364.66;5087543;28;20047;-66
2022/06/08 00:23:44;;;;;;;14.40;7.10;;;;;;;20.36;72.20;99353.66;5092446;28;20199;-66
2022/06/08 00:26:10;;;;;;;10.57;7.43;;;;;;;20.35;72.35;99356.59;5090525;28;20226;-66
2022/06/08 00:28:36;;;;;;;12.30;7.65;;;;;;;20.26;73.13;99348.06;5089157;28;20266;-66
2022/06/08 00:31:01;;;;;;;9.90;7.10;;;;;;;20.29;72.94;99349.44;5091757;28;20268;-66
2022/06/08 00:33:27;;;;;;;11.32;7.60;;;;;;;20.16;73.01;99341.63;5088061;28;20040;-66
2022/06/08 00:35:53;;;;;;;10.00;7.60;;;;;;;20.08;73.64;99350.84;5091725;28;20035;-66
2022/06/08 00:38:18;;;;;;;9.93;6.97;;;;;;;20.19;73.21;99349.22;5087986;28;20225;-66
2022/06/08 00:41:17;;;;;;;15.18;7.15;;;;;;;20.08;73.46;99350.84;5092240;28;20035;-67
2022/06/08 00:43:44;;;;;;;11.52;7.10;;;;;;;20.09;73.39;99347.13;5086796;28;20068;-66
2022/06/08 00:46:11;;;;;;;10.52;7.15;;;;;;;20.04;74.05;99349.69;5091413;28;20036;-66
2022/06/08 00:48:43;;;;;;;13.75;7.00;;;;;;;20.09;74.03;99353.31;5088654;28;20036;-66
2022/06/08 00:51:09;;;;;;;9.57;7.43;;;;;;;20.10;73.33;99343.38;5090547;28;20038;-66
2022/06/08 00:53:40;;;;;;;10.38;7.00;;;;;;;20.15;73.05;99350.75;5088313;28;20391;-66
2022/06/08 00:56:10;;;;;;;13.65;6.93;;;;;;;20.17;72.82;99360.22;5093787;28;20089;-66
2022/06/08 00:58:37;;;;;;;8.77;6.53;;;;;;;20.26;71.77;99358.00;5088472;28;20090;-66
2022/06/08 01:01:03;;;;;;;11.75;7.25;;;;;;;20.08;72.25;99350.84;5089334;28;20032;-66
2022/06/08 01:03:28;;;;;;;13.48;7.57;;;;;;;19.99;72.82;99355.75;5084910;28;20036;-66
2022/06/08 01:06:15;;;;;;;10.50;6.88;;;;;;;19.95;73.30;99348.41;5088950;28;20224;-66
2022/06/08 01:08:51;;;;;;;7.57;6.78;;;;;;;19.91;74.16;99353.41;5090342;28;20103;-66
2022/06/08 01:11:34;;;;;;;14.68;7.20;;;;;;;19.89;73.95;99342.09;5089691;28;20040;-66
2022/06/08 01:14:02;;;;;;;8.65;7.20;;;;;;;19.95;73.93;99362.66;5085817;28;20091;-66
2022/06/08 01:16:28;;;;;;;12.35;7.82;;;;;;;19.95;74.11;99356.47;5090275;28;20032;-66
2022/06/08 01:18:54;;;;;;;11.90;7.50;;;;;;;19.89;74.28;99360.88;5085762;28;20058;-67
2022/06/08 01:21:19;;;;;;;12.02;7.35;;;;;;;19.93;74.08;99366.63;5089668;28;20052;-66
2022/06/08 01:23:55;;;;;;;12.40;7.90;;;;;;;19.90;74.23;99367.09;5089182;28;20374;-66
2022/06/08 01:26:30;;;;;;;13.57;7.53;;;;;;;19.98;73.26;99358.69;5089414;28;20399;-66
2022/06/08 01:29:18;;;;;;;11.25;7.80;;;;;;;19.98;72.61;99351.44;5090859;28;20195;-66
2022/06/08 01:32:11;;;;;;;13.13;8.30;;;;;;;20.01;72.55;99352.84;5090177;28;20352;-67
2022/06/08 01:34:46;;;;;;;10.82;9.10;;;;;;;19.80;73.63;99364.97;5087129;28;20365;-66
2022/06/08 01:37:17;;;;;;;10.48;8.18;;;;;;;19.82;74.24;99362.06;5068921;28;20028;-66
2022/06/08 01:40:02;;;;;;;13.40;8.80;;;;;;;19.87;73.75;99356.81;5087986;28;20028;-66
2022/06/08 01:42:30;;;;;;;9.07;8.18;;;;;;;19.86;73.93;99357.84;5090125;28;20038;-67
2022/06/08 01:45:38;;;;;;;17.90;8.77;;;;;;;19.90;73.58;99359.03;5068320;28;20351;-66
2022/06/08 01:48:38;;;;;;;10.13;8.10;;;;;;;19.74;74.55;99358.63;5085189;28;20210;-66
2022/06/08 01:51:27;;;;;;;11.50;7.60;;;;;;;19.74;74.46;99361.31;5089155;28;20059;-66
2022/06/08 01:54:23;;;;;;;12.05;7.97;;;;;;;19.55;75.57;99359.75;5085738;28;20034;-66
2022/06/08 01:57:14;;;;;;;15.45;7.60;;;;;;;19.73;74.44;99366.91;5089742;28;20226;-66
2022/06/08 01:59:48;;;;;;;12.65;7.22;;;;;;;19.77;73.25;99365.44;5086370;28;20046;-66
2022/06/08 02:02:41;;;;;;;11.05;6.40;;;;;;;19.56;72.99;99361.38;5086019;28;20028;-67
2022/06/08 02:05:18;;;;;;;11.65;6.10;;;;;;;19.63;72.45;99366.66;5086037;28;20094;-66
2022/06/08 02:07:59;;;;;;;7.63;6.05;;;;;;;19.61;72.38;99358.81;5087600;28;20039;-66
2022/06/08 02:10:38;;;;;;;7.50;5.72;;;;;;;19.70;71.68;99356.63;5091968;28;20472;-66
2022/06/08 02:13:16;;;;;;;10.60;6.10;;;;;;;19.30;73.13;99365.22;5086919;28;20043;-67
2022/06/08 02:15:45;;;;;;;9.75;6.15;;;;;;;19.28;73.63;99355.78;5088693;28;20032;-66
2022/06/08 02:18:20;;;;;;;12.43;5.90;;;;;;;19.35;73.05;99359.19;5088614;28;20028;-66
2022/06/08 02:21:01;;;;;;;8.07;5.70;;;;;;;19.54;71.85;99355.41;5087868;28;20044;-66
2022/06/08 02:23:35;;;;;;;10.15;5.43;;;;;;;19.37;72.41;99360.59;5085977;28;20028;-66
2022/06/08 02:26:00;;;;;;;;;;;;;;;19.51;71.88;99363.09;5089791;28;20055;-67
2022/06/08 02:28:35;;;;;;;9.20;5.70;;;;;;;19.44;71.77;99349.75;5068078;28;19935;-66
2022/06/08 02:31:09;;;;;;;11.63;5.60;;;;;;;19.38;71.61;99351.50;5093314;28;20056;-66
2022/06/08 02:36:29;;;;;;;16.83;5.45;;;;;;;19.41;71.31;99363.63;5089608;28;20082;-66
2022/06/08 02:39:11;;;;;;;9.00;5.43;;;;;;;19.31;71.83;99364.19;5086560;28;20308;-66
2022/06/08 02:41:41;;;;;;;14.73;5.68;;;;;;;19.21;72.42;99357.72;5087973;28;20043;-66
2022/06/08 02:44:11;;;;;;;9.48;4.90;;;;;;;19.29;72.10;99358.22;5086820;28;20043;-66
2022/06/08 02:46:58;;;;;;;9.73;5.43;;;;;;;19.23;72.53;99361.00;5093486;28;20337;-66
2022/06/08 02:49:24;;;;;;;10.35;5.43;;;;;;;19.07;72.38;99349.84;5094183;28;20054;-66
2022/06/08 02:52:10;;;;;;;13.18;5.03;;;;;;;19.16;73.01;99355.72;5087133;28;20238;-66
2022/06/08 02:54:36;;;;;;;11.00;5.05;;;;;;;19.22;72.82;99357.50;5102912;28;20050;-66
2022/06/08 02:57:20;;;;;;;10.05;5.32;;;;;;;19.23;72.46;99361.00;5103119;28;20032;-67
2022/06/08 02:59:53;;;;;;;14.75;6.00;;;;;;;19.27;72.07;99360.31;5099367;28;20377;-66
2022/06/08 03:02:33;;;;;;;14.05;5.65;;;;;;;19.32;71.21;99362.31;5100052;28;20051;-66
2022/06/08 03:05:04;;;;;;;10.82;5.20;;;;;;;19.18;71.78;99368.91;5103334;28;20031;-66
2022/06/08 03:07:35;;;;;;;7.15;4.80;;;;;;;19.12;72.34;99371.47;5102842;28;20036;-66
2022/06/08 03:10:07;;;;;;;11.75;5.68;;;;;;;19.17;72.29;99380.69;5103076;28;20210;-66
2022/06/08 03:12:40;;;;;;;8.65;5.00;;;;;;;19.12;71.88;99384.88;5103066;28;20276;-66
2022/06/08 03:15:08;;;;;;;12.93;5.55;;;;;;;19.07;71.99;99383.91;5103081;28;20044;-66
2022/06/08 03:17:37;;;;;;;13.35;6.15;;;;;;;18.92;72.37;99387.00;5102891;28;20322;-66
2022/06/08 03:20:07;;;;;;;13.45;5.38;;;;;;;18.91;71.54;99380.00;5103122;28;20028;-66
2022/06/08 03:22:33;;;;;;;22.15;5.80;;;;;;;18.75;71.36;99373.38;5102353;28;20028;-66
2022/06/08 03:24:59;;;;;;;14.43;6.03;;;;;;;18.76;72.31;99379.53;5102949;28;20028;-66
2022/06/08 03:27:24;;;;;;;11.02;5.28;;;;;;;18.81;71.27;99377.84;5103046;28;20038;-66
2022/06/08 03:29:50;;;;;;;11.93;5.30;;;;;;;18.72;72.01;99381.00;5102815;28;20218;-67
2022/06/08 03:32:17;;;;;;;12.10;6.05;;;;;;;18.72;72.89;99381.00;5102463;28;20337;-66
2022/06/08 03:34:42;;;;;;;16.98;5.22;;;;;;;18.57;73.82;99381.34;5102833;28;20035;-66
2022/06/08 03:37:09;;;;;;;11.20;5.50;;;;;;;18.49;75.10;99384.31;5102294;28;20271;-66
2022/06/08 03:39:35;;;;;;;16.05;5.68;;;;;;;18.62;75.18;99381.53;5102820;28;20043;-66
2022/06/08 03:42:00;;;;;;;9.25;5.82;;;;;;;18.72;75.26;99386.38;5102471;28;20234;-66
2022/06/08 03:44:25;;;;;;;11.10;5.90;;;;;;;18.49;76.07;99385.13;5102504;28;20207;-66
2022/06/08 03:46:59;;;;;;;13.02;5.68;;;;;;;18.51;75.89;99379.56;5084930;28;20074;-66
2022/06/08 03:49:26;;;;;;;11.07;5.80;;;;;;;18.43;76.38;99383.34;5085604;28;20047;-66
2022/06/08 03:51:56;;;;;;;16.65;6.07;;;;;;;18.42;76.60;99375.53;5081756;28;20032;-66
2022/06/08 03:54:24;;;;;;;11.75;5.25;;;;;;;18.50;76.58;99380.59;5082161;28;20043;-66
2022/06/08 03:56:54;;;;;;;13.57;5.75;;;;;;;18.66;76.10;99379.22;5080647;28;20051;-66
2022/06/08 03:59:20;;;;;;;8.23;6.22;;;;;;;18.81;74.60;99390.44;5082917;28;20252;-67
2022/06/08 04:01:45;;;;;;;8.13;5.40;;;;;;;19.05;75.24;99388.69;5081418;28;20333;-66
2022/06/08 04:04:11;;;;;;;12.43;5.53;;;;;;;19.16;74.30;99393.28;5082968;28;20043;-66
2022/06/08 04:06:37;;;;;;;10.98;5.97;;;;;;;19.18;74.07;99399.25;5081698;28;20048;-66
2022/06/08 04:09:03;;;;;;;12.98;5.82;;;;;;;19.17;74.35;99399.47;5083285;28;20095;-67
2022/06/08 04:11:29;;;;;;;7.65;5.93;;;;;;;19.19;74.11;99400.06;5083261;28;20068;-66
2022/06/08 04:13:54;;;;;;;10.32;5.65;;;;;;;19.28;73.84;99394.16;5083023;28;20054;-66
2022/06/08 04:16:20;;;;;;;10.65;6.65;;;;;;;19.61;72.20;99399.09;5081494;28;20041;-66
2022/06/08 04:18:45;;;;;;;7.68;5.75;;;;;;;20.15;70.19;99404.50;5080674;28;20017;-66
2022/06/08 04:21:13;;;;;;;9.13;5.72;;;;;;;20.37;68.77;99398.31;5081631;28;20098;-66
2022/06/08 04:23:41;;;;;;;10.40;5.63;;;;;;;20.65;68.79;99396.81;5082691;28;20032;-66
2022/06/08 04:26:07;;;;;;;7.53;4.97;;;;;;;20.91;67.33;99399.03;5082936;28;20029;-66
2022/06/08 04:28:33;;;;;;;9.75;5.70;;;;;;;21.23;65.86;99404.81;5083572;28;20272;-66
2022/06/08 04:30:59;;;;;;;14.52;5.60;;;;;;;21.38;65.02;99403.47;5081805;28;20044;-66
2022/06/08 04:33:24;;;;;;;10.57;5.05;;;;;;;21.51;63.70;99408.56;5082277;28;20028;-66
2022/06/08 04:35:50;;;;;;;11.40;5.65;;;;;;;21.75;63.83;99404.69;5082249;28;20276;-66
2022/06/08 04:38:16;;;;;;;13.35;5.05;;;;;;;21.97;60.75;99405.63;5081787;28;20032;-67
2022/06/08 04:40:42;;;;;;;10.45;5.00;;;;;;;22.03;61.32;99406.56;5082661;28;20076;-66
2022/06/08 04:43:08;;;;;;;12.73;5.78;;;;;;;22.25;61.05;99410.16;5082274;28;20024;-67
2022/06/08 04:45:35;;;;;;;11.63;4.68;;;;;;;22.58;58.91;99411.19;5084900;28;20051;-67
2022/06/08 04:48:02;;;;;;;4.22;3.80;;;;;;;22.87;55.11;99415.41;5081997;28;20054;-66
2022/06/08 04:50:28;;;;;;;7.78;4.63;;;;;;;22.87;55.48;99409.19;5080043;28;20040;-66
2022/06/08 04:52:54;;;;;;;8.38;4.32;;;;;;;22.80;55.39;99401.25;5082541;28;20345;-67
2022/06/08 04:55:20;;;;;;;7.47;4.38;;;;;;;23.13;55.10;99405.75;5081593;28;20040;-67
2022/06/08 04:57:45;;;;;;;10.35;5.40;;;;;;;23.28;54.93;99407.81;5082293;28;20036;-67
2022/06/08 05:00:14;;;;;;;9.80;6.15;;;;;;;23.33;54.71;99394.38;5084036;28;20035;-66
2022/06/08 05:02:42;;;;;;;13.52;5.80;;;;;;;23.88;53.37;99413.06;5085524;28;20036;-66
2022/06/08 05:05:08;;;;;;;11.48;5.82;;;;;;;24.44;51.85;99400.03;5086379;28;20050;-67
2022/06/08 05:07:35;;;;;;;14.02;6.03;;;;;;;24.59;50.92;99406.59;5087786;28;20040;-66
2022/06/08 05:10:00;;;;;;;13.75;5.93;;;;;;;24.44;51.17;99400.03;5086463;28;20033;-67
2022/06/08 05:12:26;;;;;;;15.85;6.07;;;;;;;24.89;50.11;99401.34;5085768;28;20039;-67
2022/06/08 05:14:51;;;;;;;16.58;5.82;;;;;;;25.06;50.33;99398.50;5085715;28;20032;-67
2022/06/08 05:17:17;;;;;;;11.95;5.45;;;;;;;24.80;50.03;99405.63;5085517;28;20234;-67
2022/06/08 05:19:42;;;;;;;11.15;4.47;;;;;;;25.12;48.40;99410.97;5085477;28;20040;-67
2022/06/08 05:22:08;;;;;;;10.10;5.03;;;;;;;25.37;48.33;99397.50;5066799;28;20028;-67
2022/06/08 05:24:33;;;;;;;17.98;4.47;;;;;;;25.54;46.09;99405.41;5085714;28;20078;-67
2022/06/08 05:26:58;;;;;;;9.43;4.03;;;;;;;25.82;46.09;99396.00;5084036;28;20035;-67
2022/06/08 05:29:24;;;;;;;6.32;4.50;;;;;;;25.76;46.89;99407.91;5085538;28;20032;-67
2022/06/08 05:31:49;;;;;;;15.15;4.28;;;;;;;26.00;46.31;99405.50;5085829;28;20032;-67
2022/06/08 05:34:15;;;;;;;5.28;4.03;;;;;;;26.25;45.32;99401.97;5084891;28;20302;-67
2022/06/08 05:36:41;;;;;;;11.35;4.47;;;;;;;26.43;45.07;99404.16;5086439;28;20199;-68
2022/06/08 05:39:07;;;;;;;7.45;4.55;;;;;;;26.46;45.04;99378.38;5067299;28;20142;-67
2022/06/08 05:41:32;;;;;;;6.68;4.28;;;;;;;26.60;45.72;99393.81;5085199;28;20077;-68
2022/06/08 05:43:57;;;;;;;12.50;4.85;;;;;;;26.54;46.04;99402.25;5084268;28;20039;-67
2022/06/08 05:46:24;;;;;;;8.45;4.47;;;;;;;26.77;45.32;99406.25;5085095;28;20028;-68
2022/06/08 05:48:50;;;;;;;6.35;4.70;;;;;;;26.72;45.53;99401.66;5083739;28;20024;-68
2022/06/08 05:51:15;;;;;;;9.68;4.63;;;;;;;27.03;44.63;99403.19;5065114;28;20305;-68
2022/06/08 05:53:41;;;;;;;7.95;4.90;;;;;;;27.46;44.09;99406.28;5083714;28;20024;-67
2022/06/08 05:56:07;;;;;;;7.97;4.20;;;;;;;26.87;44.94;99406.22;5084847;28;20033;-67
2022/06/08 05:58:32;;;;;;;8.15;4.22;;;;;;;26.96;44.78;99399.94;5083434;28;20031;-68
2022/06/08 06:00:58;;;;;;;10.45;5.60;;;;;;;27.12;44.63;99387.16;5082998;28;20040;-68
2022/06/08 06:03:24;;;;;;;10.23;5.00;;;;;;;27.65;43.72;99393.66;5085521;28;20036;-68
2022/06/08 06:05:49;;;;;;;7.45;4.20;;;;;;;27.90;43.15;99398.13;5084918;28;20062;-68
2022/06/08 06:08:16;;;;;;;9.52;4.10;;;;;;;28.32;41.41;99387.75;5084940;28;20025;-68
2022/06/08 06:10:44;;;;;;;8.45;4.10;;;;;;;28.25;41.78;99394.31;5082903;28;20040;-68
2022/06/08 06:13:10;;;;;;;9.13;4.15;;;;;;;28.31;40.76;99394.28;5082623;28;20352;-68
2022/06/08 06:15:37;;;;;;;8.23;4.13;;;;;;;28.17;41.61;99394.09;5088055;28;20270;-67
2022/06/08 06:18:03;;;;;;;9.00;4.22;;;;;;;28.24;41.22;99395.44;5084368;28;20032;-68
2022/06/08 06:20:31;;;;;;;6.40;3.80;;;;;;;28.33;40.75;99392.09;5084751;28;20036;-67
2022/06/08 06:22:56;;;;;;;8.27;4.63;;;;;;;28.80;39.59;99383.13;5083748;28;20032;-67
2022/06/08 06:25:22;;;;;;;5.25;4.50;;;;;;;28.97;38.65;99391.66;5084987;28;20078;-68
2022/06/08 06:27:48;;;;;;;7.50;4.35;;;;;;;28.82;39.26;99389.09;5084158;28;20227;-68
2022/06/08 06:30:14;;;;;;;6.93;4.00;;;;;;;28.85;39.65;99381.19;5084208;28;20161;-68
2022/06/08 06:32:40;;;;;;;6.57;3.83;;;;;;;28.84;38.73;99389.66;5084726;28;20070;-67
2022/06/08 06:35:11;;;;;;;6.03;4.43;;;;;;;28.09;40.80;99392.81;5083610;28;20040;-67
2022/06/08 06:37:37;;;;;;;7.25;4.13;;;;;;;28.31;38.41;99389.66;5083545;28;20064;-68
2022/06/08 06:40:04;;;;;;;9.32;4.25;;;;;;;28.75;37.56;99377.75;5084261;28;20917;-68
2022/06/08 06:42:33;;;;;;;5.35;4.10;;;;;;;29.28;37.29;99373.03;5084348;28;20040;-68
2022/06/08 06:44:59;;;;;;;8.02;4.30;;;;;;;28.95;37.95;99372.06;5082437;28;20304;-68
2022/06/08 06:47:25;;;;;;;10.43;4.18;;;;;;;29.04;37.43;99370.31;5080296;28;20052;-67
2022/06/08 06:49:50;;;;;;;7.45;3.83;;;;;;;29.44;37.29;99363.56;5084321;28;20210;-68
2022/06/08 06:52:17;;;;;;;7.72;3.90;;;;;;;29.58;38.56;99369.06;5084113;28;20028;-68
2022/06/08 06:54:43;;;;;;;9.43;3.95;;;;;;;28.94;38.22;99365.00;5085666;28;20210;-68
2022/06/08 06:57:08;;;;;;;5.80;3.65;;;;;;;29.22;36.56;99366.03;5086553;28;20040;-68
2022/06/08 06:59:34;;;;;;;5.03;3.15;;;;;;;29.34;36.13;99360.94;5095257;28;20327;-68
2022/06/08 07:02:00;;;;;;;5.45;3.60;;;;;;;29.75;36.67;99355.69;5095363;28;20024;-68
2022/06/08 07:04:25;;;;;;;5.10;3.20;;;;;;;30.06;34.87;99350.56;5092930;28;20396;-68
2022/06/08 07:06:53;;;;;;;6.30;3.45;;;;;;;30.43;33.88;99349.66;5094860;28;20059;-67
2022/06/08 07:09:18;;;;;;;10.93;4.30;;;;;;;30.82;33.38;99345.63;5096193;28;20028;-68
2022/06/08 07:11:44;;;;;;;5.25;3.50;;;;;;;30.96;32.56;99342.88;5094380;28;20351;-68
2022/06/08 07:14:16;;;;;;;4.85;3.22;;;;;;;31.02;32.08;99347.94;5095145;28;20031;-68
2022/06/08 07:16:45;;;;;;;4.67;3.00;;;;;;;31.04;31.06;99339.41;5097191;28;20032;-67
2022/06/08 07:19:11;;;;;;;5.32;2.90;;;;;;;31.37;31.33;99342.84;5092892;28;20119;-68
2022/06/08 07:21:37;;;;;;;3.85;2.90;;;;;;;30.85;32.00;99341.47;5095725;28;20043;-67
2022/06/08 07:24:03;;;;;;;6.63;3.17;;;;;;;30.32;34.11;99342.75;5097478;28;20031;-67
2022/06/08 07:26:29;;;;;;;6.50;3.15;;;;;;;30.22;33.87;99329.28;5096381;28;20044;-67
2022/06/08 07:28:56;;;;;;;3.45;2.60;;;;;;;30.92;32.45;99323.53;5093243;28;20024;-67
2022/06/08 07:31:23;;;;;;;4.35;2.85;;;;;;;29.64;35.59;99326.97;5093552;28;20070;-68
2022/06/08 07:33:48;;;;;;;12.05;3.53;;;;;;;29.48;35.32;99323.66;5095474;28;20040;-67
2022/06/08 07:36:15;;;;;;;6.63;3.35;;;;;;;30.21;33.77;99324.13;5094762;28;20051;-68
2022/06/08 07:38:41;;;;;;;5.45;2.63;;;;;;;30.89;32.88;99323.34;5097211;28;20051;-68
2022/06/08 07:41:07;;;;;;;6.22;2.50;;;;;;;31.34;32.78;99324.31;5093664;28;20329;-68
2022/06/08 07:43:32;;;;;;;5.60;2.65;;;;;;;31.47;31.35;99312.50;5094340;28;20095;-68
2022/06/08 07:45:58;;;;;;;6.03;2.70;;;;;;;32.07;30.80;99328.53;5096071;28;20225;-68
2022/06/08 07:51:09;;;;;;;4.55;2.42;;;;;;;32.16;31.31;99321.19;5092271;28;20074;-68
2022/06/08 07:53:34;;;;;;;3.25;2.65;;;;;;;31.44;31.20;99321.34;5093711;28;20039;-68
2022/06/08 07:56:00;;;;;;;3.53;2.28;;;;;;;30.99;32.58;99323.94;5095282;28;20257;-68
2022/06/08 07:58:26;;;;;;;7.32;2.90;;;;;;;30.55;33.39;99324.56;5092190;28;20073;-68
2022/06/08 08:00:53;;;;;;;3.28;2.42;;;;;;;30.66;32.91;99317.81;5093779;28;20051;-68
2022/06/08 08:03:19;;;;;;;9.00;2.40;;;;;;;31.28;31.94;99317.34;5093709;28;20099;-68
2022/06/08 08:05:46;;;;;;;22.38;3.38;;;;;;;32.09;30.42;99320.81;5096271;28;20149;-68
2022/06/08 08:08:14;;;;;;;3.25;2.33;;;;;;;32.26;29.59;99336.59;5092326;28;20557;-68
2022/06/08 08:10:40;;;;;;;5.93;2.58;;;;;;;32.25;30.43;99332.22;5093067;28;20221;-68
2022/06/08 08:13:07;;;;;;;4.18;2.13;;;;;;;31.47;31.16;99319.91;5092838;28;20036;-68
2022/06/08 08:15:34;;;;;;;4.05;2.65;;;;;;;30.55;33.02;99321.81;5095426;28;20047;-67
2022/06/08 08:17:59;;;;;;;7.15;2.70;;;;;;;30.93;32.64;99321.63;5094110;28;20085;-68
2022/06/08 08:20:28;;;;;;;7.35;2.60;;;;;;;30.57;32.21;99324.25;5092641;28;20044;-67
2022/06/08 08:22:55;;;;;;;4.28;2.42;;;;;;;30.07;31.61;99333.06;5100531;28;20035;-68
2022/06/08 08:25:20;;;;;;;5.40;2.45;;;;;;;29.38;34.83;99314.81;5101252;28;20047;-67
2022/06/08 08:27:46;;;;;;;6.90;4.13;;;;;;;28.91;35.20;99324.69;5099465;28;20052;-67
2022/06/08 08:30:24;;;;;;;3.83;2.33;;;;;;;28.74;35.23;99330.59;5100961;28;20104;-67
2022/06/08 08:32:50;;;;;;;2.67;2.17;;;;;;;28.88;33.88;99317.13;5100785;28;20036;-67
2022/06/08 08:35:16;;;;;;;4.57;2.65;;;;;;;29.59;33.66;99320.78;5104753;28;20066;-67
2022/06/08 08:37:43;;;;;;;6.85;2.78;;;;;;;29.04;34.37;99321.25;5104702;28;20024;-68
2022/06/08 08:40:38;;;;;;;7.18;2.13;;;;;;;29.53;33.08;99326.31;5105006;28;20035;-67
2022/06/08 08:43:07;;;;;;;3.83;2.20;;;;;;;30.52;31.16;99314.22;5104507;28;20058;-67
2022/06/08 08:45:42;;;;;;;4.05;2.20;;;;;;;30.00;32.77;99327.16;5104021;28;20035;-67
2022/06/08 08:48:19;;;;;;;3.30;2.17;;;;;;;29.93;31.24;99325.94;5104851;28;20034;-68
2022/06/08 08:50:56;;;;;;;2.67;2.42;;;;;;;30.08;31.99;99326.50;5104801;28;20333;-68
2022/06/08 08:53:32;;;;;;;7.97;2.08;;;;;;;29.98;32.22;99334.03;5103554;28;20313;-67
2022/06/08 08:56:23;;;;;;;5.57;2.25;;;;;;;30.31;33.20;99330.22;5104731;28;20040;-67
2022/06/08 08:58:48;;;;;;;5.47;2.10;;;;;;;30.26;31.18;99313.13;5092764;28;20199;-67
2022/06/08 09:01:45;;;;;;;3.78;2.28;;;;;;;30.97;31.98;99307.03;5104507;28;20047;-68
2022/06/08 09:04:13;;;;;;;10.82;2.60;;;;;;;31.36;32.40;99306.47;5091853;28;20055;-68
2022/06/08 09:06:39;;;;;;;2.53;1.70;;;;;;;31.01;30.61;99310.75;5104210;28;20062;-67
2022/06/08 09:09:12;;;;;;;2.95;2.30;;;;;;;29.95;31.51;99313.59;5104571;28;20026;-68
2022/06/08 09:11:41;;;;;;;3.67;2.00;;;;;;;29.52;31.34;99312.97;5104175;28;20290;-67
2022/06/08 09:14:13;;;;;;;5.63;2.05;;;;;;;29.21;30.77;99318.84;5104219;28;20333;-67
2022/06/08 09:16:48;;;;;;;4.80;1.90;;;;;;;29.29;30.68;99316.56;5104406;28;20032;-67
2022/06/08 09:19:24;;;;;;;5.32;1.95;;;;;;;30.26;30.55;99307.66;5104512;28;20023;-68
2022/06/08 09:22:26;;;;;;;6.45;1.75;;;;;;;30.88;30.13;99306.13;5086077;28;20040;-67
2022/06/08 09:24:59;;;;;;;2.10;1.90;;;;;;;31.27;30.06;99299.31;5104203;28;20020;-68
2022/06/08 09:27:36;;;;;;;7.35;2.20;;;;;;;31.08;30.59;99300.22;5102688;28;20276;-67
2022/06/08 09:30:02;;;;;;;2.90;2.00;;;;;;;29.54;32.55;99303.38;5103935;28;20043;-67
2022/06/08 09:32:34;;;;;;;2.85;2.30;;;;;;;29.09;34.00;99307.56;5085695;28;20072;-67
2022/06/08 09:35:31;;;;;;;6.40;2.40;;;;;;;28.80;34.38;99299.47;5103915;28;20191;-67
2022/06/08 09:38:02;;;;;;;5.85;2.60;;;;;;;29.24;33.60;99288.28;5103633;28;20044;-67
2022/06/08 09:40:36;;;;;;;3.45;2.35;;;;;;;29.14;34.22;99285.69;5103964;28;20102;-68
2022/06/08 09:43:32;;;;;;;3.95;2.53;;;;;;;28.84;34.82;99286.09;5103179;28;20099;-67
2022/06/08 09:51:25;;;;;;;3.83;2.60;;;;;;;28.85;34.45;99282.28;5102628;28;20028;-67
2022/06/08 09:52:15;;;;;;;4.13;2.72;;;;;;;28.65;36.37;99288.78;5102684;28;20027;-67
2022/06/08 09:54:50;;;;;;;7.25;2.75;;;;;;;28.06;37.37;99273.59;5103524;28;20202;-67
2022/06/08 09:57:35;;;;;;;5.18;2.47;;;;;;;28.26;36.62;99280.78;5103306;28;20044;-67
2022/06/08 10:00:36;;;;;;;9.75;3.00;;;;;;;28.12;39.51;99267.03;5085605;28;20044;-67
2022/06/08 10:03:35;;;;;;;5.75;2.53;;;;;;;27.54;39.11;99266.19;5103255;28;20036;-67
2022/06/08 10:06:21;;;;;;;4.57;2.60;;;;;;;27.08;39.89;99269.22;5102559;28;20313;-67
2022/06/08 10:09:02;;;;;;;5.18;2.70;;;;;;;27.39;40.15;99258.94;5102437;28;20048;-68
2022/06/08 10:11:34;;;;;;;5.50;2.92;;;;;;;27.55;40.44;99255.00;5102978;28;20286;-67
2022/06/08 10:14:30;;;;;;;3.17;2.58;;;;;;;27.17;38.60;99250.44;5103314;28;20868;-67
2022/06/08 10:17:18;;;;;;;3.10;2.22;;;;;;;27.33;38.09;99257.38;5077463;28;20051;-67
2022/06/08 10:19:49;;;;;;;2.92;2.30;;;;;;;27.52;37.59;99257.50;5103165;28;20088;-67
2022/06/08 10:22:14;;;;;;;4.22;1.90;;;;;;;27.76;36.97;99254.84;5102849;28;20084;-67
2022/06/08 10:24:50;;;;;;;5.38;2.17;;;;;;;27.69;38.41;99251.66;5102981;28;20032;-67
2022/06/08 10:27:23;;;;;;;5.47;2.40;;;;;;;27.87;37.10;99237.34;5101971;28;20039;-68
2022/06/08 10:30:30;;;;;;;4.07;2.08;;;;;;;27.93;36.71;99231.56;5102405;28;20218;-67
2022/06/08 10:33:11;;;;;;;3.90;3.13;;;;;;;27.96;39.48;99246.50;5102830;28;20043;-68
2022/06/08 10:35:41;;;;;;;6.45;2.97;;;;;;;27.88;38.16;99245.22;5095041;28;20044;-67
2022/06/08 10:38:17;;;;;;;7.38;2.97;;;;;;;28.06;39.63;99240.13;5092931;28;20028;-68
2022/06/08 10:41:00;;;;;;;9.25;2.63;;;;;;;28.26;37.34;99239.97;5094357;28;20032;-68
2022/06/08 10:43:31;;;;;;;3.45;2.95;;;;;;;27.94;38.21;99235.91;5095171;28;20031;-67
2022/06/08 10:46:05;;;;;;;5.25;2.80;;;;;;;28.00;37.32;99225.75;5095000;28;20042;-67
2022/06/08 10:48:35;;;;;;;5.03;2.40;;;;;;;28.07;40.91;99228.16;5091161;28;20043;-67
2022/06/08 10:51:26;;;;;;;5.75;2.55;;;;;;;28.06;38.21;99211.00;5092631;28;20364;-67
2022/06/08 10:56:38;;;;;;;7.70;2.75;;;;;;;28.15;38.33;99206.56;5098934;28;20108;-67
2022/06/08 10:59:06;;;;;;;6.53;2.40;;;;;;;27.56;39.09;99212.31;5101723;28;20334;-67
2022/06/08 11:01:53;;;;;;;3.10;2.60;;;;;;;27.64;38.76;99211.72;5102213;28;20042;-67
2022/06/08 11:04:35;;;;;;;3.22;2.58;;;;;;;27.20;38.94;99206.38;5100928;28;20032;-67
2022/06/08 11:07:07;;;;;;;4.32;2.70;;;;;;;27.17;38.42;99199.59;5102109;28;20078;-67
2022/06/08 11:09:33;;;;;;;2.90;2.50;;;;;;;27.28;37.98;99189.44;5102200;28;20258;-67
2022/06/08 11:12:13;;;;;;;6.30;2.40;;;;;;;27.69;38.74;99197.25;5101825;28;20321;-67
2022/06/08 11:14:48;;;;;;;3.83;2.50;;;;;;;27.37;40.35;99184.22;5102250;28;20028;-67
2022/06/08 11:17:34;;;;;;;5.43;2.60;;;;;;;27.47;36.88;99173.25;5101768;28;20349;-67
2022/06/08 11:20:14;;;;;;;4.25;2.40;;;;;;;27.62;38.90;99163.06;5101572;28;20306;-67
2022/06/08 11:23:16;;;;;;;7.78;2.72;;;;;;;27.37;40.73;99167.91;5082698;28;20040;-67
2022/06/08 11:25:49;;;;;;;3.80;2.33;;;;;;;27.49;37.98;99165.59;5060738;28;20036;-67
2022/06/08 11:28:24;;;;;;;3.13;2.60;;;;;;;27.46;37.60;99168.91;5101819;28;20036;-67
2022/06/08 11:30:51;;;;;;;3.78;2.88;;;;;;;27.62;39.68;99163.06;5101611;28;22059;-67
2022/06/08 11:33:19;;;;;;;2.53;2.33;;;;;;;27.67;36.34;99129.56;5101693;28;20059;-67
2022/06/08 11:36:08;;;;;;;5.95;2.88;;;;;;;27.86;37.87;99162.25;5101906;28;20372;-67
2022/06/08 11:39:01;;;;;;;4.80;3.08;;;;;;;27.63;38.99;99152.97;5101211;28;20353;-67
2022/06/08 11:41:34;;;;;;;5.28;2.80;;;;;;;27.74;38.53;99140.91;5083499;28;20036;-67
2022/06/08 11:44:09;;;;;;;4.07;2.70;;;;;;;27.59;38.69;99150.00;5101755;28;20031;-67
2022/06/08 11:46:40;;;;;;;4.25;2.80;;;;;;;27.89;38.06;99151.59;5101589;28;20365;-67
2022/06/08 11:49:25;;;;;;;3.58;2.75;;;;;;;28.05;38.58;99138.63;5093100;28;20036;-68
2022/06/08 11:51:50;;;;;;;4.63;2.90;;;;;;;27.99;38.76;99137.88;5090880;28;20046;-67
2022/06/08 11:54:27;;;;;;;4.47;3.33;;;;;;;27.97;42.03;99142.00;5091510;28;20032;-67
2022/06/08 11:57:04;;;;;;;6.10;3.08;;;;;;;27.73;39.08;99141.19;5093840;28;20036;-67
2022/06/08 11:59:36;;;;;;;4.60;2.85;;;;;;;27.81;40.09;99143.25;5091910;28;20036;-67
2022/06/08 12:02:12;;;;;;;5.95;2.72;;;;;;;27.81;37.78;99135.91;5091565;28;20039;-67
2022/06/08 12:04:43;;;;;;;6.30;2.47;;;;;;;27.69;37.11;99142.84;5093689;28;20032;-67